Piskorska, Anna
United StatesWomanBorn 19722006 – 2026Runner id 63682
Events
81
78 race dates
Best pace
10.690
km/h · 2011
Best finish
1st
of 131 · 2011
Distance raced
7,648
km · splits not double-counted
Pace over time
km/h · higher is faster
Pace over time: 79 races and 2 splits from 2006 to 2026, ranging from 3.40 to 11.09 kilometres per hour, where higher is faster. A second, age-graded series is drawn above it; the gap between the two is the age credit.
- Actual pace
- Age-graded pace
- Split of a race already plotted
Results
| Date | Event | Distance | Result | Pace km/h | Placing |
|---|---|---|---|---|---|
| 2006-03-25 | 50km | 4:55:16 h | 10.160 | 57/347 | |
| 2006-10-07 | 50km | 4:58:35 h | 10.047 | 19/80 | |
| 2007-10-07 | 50km | 5:12:00 h | 9.615 | 20/89 | |
| 2007-11-17 | 50mi | 8:31:36 h | 9.437 | 148/1078 | |
| 2008-03-22 | 50mi | 10:53:15 h | 7.391 | 17/60 | |
| 2008-10-05 | 50km | 4:54:04 h | 10.202 | 20/103 | |
| 2008-11-22 | 50mi | 8:32:03 h | 9.429 | 82/927 | |
| 2009-03-28 | 50mi | 11:21:10 h | 7.088 | 24/43 | |
| 2009-05-09 | 50mi | 10:55:56 h | 7.361 | 28/72 | |
| 2009-07-18 | 24h | 190.520 km | 7.938 | 3/152 | |
| 2009-10-03 | 24h | 212.831 km | 8.868 | 8/105 | |
| 2010-03-27 | 100mi | 18:43:23 h | 8.596 | 14/133 | |
| 2010-05-13 | 24h | 214.417 km | 8.934 | 69/229 | |
| 2010-05-13 | IAU 24h WC Brive (Les 24 heures de Brive) - 12h SplitFranceIAU BronzeSplit of a longer race in this career; not counted again in the distance total | 12h | 118.055 km | 9.838 | 95/229 |
| 2010-05-13 | IAU 24h WC Brive (Les 24 heures de Brive) - 6h SplitFranceIAU BronzeSplit of a longer race in this career; not counted again in the distance total | 6h | 62.886 km | 10.481 | 90/224 |
| 2010-07-17 | 24h | 81.651 km | 3.402 | 100/158 | |
| 2010-09-18 | 24h | 207.777 km | 8.657 | 7/145 | |
| 2010-11-20 | 50mi | 8:17:47 h | 9.699 | 128/1014 | |
| 2011-03-05 | Manasota Track Club 50KUnited States | 50km | 4:40:38 h | 10.690 | 3/31 |
| 2011-04-09 | 50mi | 8:48:34 h | 9.134 | 52/320 | |
| 2011-05-14 | 24h | 186.366 km | 7.765 | 1/20 | |
| 2011-07-16 | 24h | 190.520 km | 7.938 | 5/198 | |
| 2011-09-17 | 24h | 169.608 km | 7.067 | 27/180 | |
| 2011-09-17 | 24h | 169.608 km | 7.067 | 23/91 | |
| 2011-12-31 | 24h | 197.672 km | 8.236 | 1/131 | |
| 2012-04-07 | 50mi | 7:58:47 h | 10.084 | 61/689 | |
| 2012-05-06 | 24h | 160.805 km | 6.700 | 22/85 | |
| 2012-07-14 | 24h | 204.129 km | 8.505 | 5/195 | |
| 2012-09-02 | 12h | 104.607 km | 8.717 | 4/162 | |
| 2012-11-17 | 50mi | 8:00:13 h | 10.054 | 98/967 | |
| 2013-06-29 | 100mi | 25:38:21 h | 6.277 | 116/277 | |
| 2013-09-21 | Virgil Crest 100 Mile UltraUnited States | 100mi | 27:02:00 h | 5.953 | 5/18 |
| 2013-10-20 | 50mi | 7:55:00 h | 10.164 | 33/144 | |
| 2014-02-22 | 50km | 5:26:47 h | 9.180 | 14/57 | |
| 2014-03-22 | 50km | 5:08:45 h | 9.717 | 39/382 | |
| 2014-05-03 | 50mi | 10:04:59 h | 7.980 | 49/252 | |
| 2014-06-08 | 50mi | 8:27:36 h | 9.511 | 21/244 | |
| 2014-07-19 | 24h | 186.699 km | 7.779 | 4/140 | |
| 2014-09-06 | 100km | 12:56:13 h | 7.730 | 70/501 | |
| 2014-10-19 | 50mi | 7:31:40 h | 10.689 | 8/53 | |
| 2015-03-21 | 50km | 5:31:44 h | 9.043 | 44/277 | |
| 2015-04-11 | 50mi | 8:54:57 h | 9.025 | 42/282 | |
| 2015-05-31 | Cayuga Trails 50 Mile RaceUnited States | 50mi | 10:03:19 h | 8.002 | 55/169 |
| 2015-07-18 | Lone Ranger 24 hr Urban UltraUnited States | 24h | 122.535 km | 5.106 | 23/128 |
| 2015-08-08 | 80km | 12:56:20 h | 6.183 | 65/165 | |
| 2015-10-25 | 50mi | 8:32:23 h | 9.423 | 18/74 | |
| 2016-04-30 | 50mi | 11:31:06 h | 6.986 | 151/330 | |
| 2016-10-30 | 50mi | 7:40:53 h | 10.476 | 19/92 | |
| 2017-04-08 | 50mi | 8:36:15 h | 9.352 | 27/286 | |
| 2017-06-03 | 50mi | 10:08:44 h | 7.931 | 41/164 |
Showing 1–50 of 81